createdAt,value
2022-09-14T00:00:40.281Z,3.77
2022-09-14T00:03:13.532Z,3.92
2022-09-14T00:05:46.789Z,4.62
2022-09-14T00:08:21.474Z,4.75
2022-09-14T00:10:54.642Z,3.98
2022-09-14T00:13:27.780Z,4.42
2022-09-14T00:16:05.885Z,4.55
2022-09-14T00:18:39.213Z,4.95
2022-09-14T00:21:14.982Z,4.00
2022-09-14T00:23:48.124Z,4.30
2022-09-14T00:26:23.503Z,3.62
2022-09-14T00:28:58.571Z,3.75
2022-09-14T00:31:32.295Z,4.33
2022-09-14T00:34:06.585Z,3.45
2022-09-14T00:36:43.640Z,3.95
2022-09-14T00:39:18.792Z,3.90
2022-09-14T00:41:53.460Z,3.95
2022-09-14T00:45:14.876Z,4.30
2022-09-14T00:47:53.347Z,3.60
2022-09-14T00:50:26.845Z,4.10
2022-09-14T00:52:59.965Z,3.77
2022-09-14T00:55:34.385Z,4.37
2022-09-14T00:58:07.581Z,3.83
2022-09-14T01:00:40.699Z,3.47
2022-09-14T01:03:13.826Z,4.35
2022-09-14T01:05:54.988Z,4.53
2022-09-14T01:08:57.305Z,4.35
2022-09-14T01:11:55.697Z,3.75
2022-09-14T01:14:35.239Z,4.42
2022-09-14T01:17:11.807Z,4.55
2022-09-14T01:20:05.437Z,4.80
2022-09-14T01:22:41.956Z,4.75
2022-09-14T01:25:20.561Z,5.78
2022-09-14T01:27:54.097Z,5.03
2022-09-14T01:30:28.679Z,4.62
2022-09-14T01:33:05.014Z,4.75
2022-09-14T01:35:41.181Z,4.35
2022-09-14T01:38:17.594Z,4.12
2022-09-14T01:43:37.165Z,2.90
2022-09-14T01:46:16.633Z,4.05
2022-09-14T01:48:52.784Z,3.60
2022-09-14T01:51:29.193Z,3.50
2022-09-14T01:54:05.257Z,4.45
2022-09-14T01:56:41.665Z,4.53
2022-09-14T01:59:18.319Z,4.53
2022-09-14T02:01:54.333Z,3.87
2022-09-14T02:04:32.706Z,4.47
2022-09-14T02:07:06.186Z,4.08
2022-09-14T02:09:39.854Z,4.53
2022-09-14T02:12:13.260Z,4.05
2022-09-14T02:14:47.537Z,3.45
2022-09-14T02:17:21.175Z,4.20
2022-09-14T02:19:57.516Z,3.70
2022-09-14T02:22:32.377Z,4.30
2022-09-14T02:25:06.610Z,4.42
2022-09-14T02:27:39.710Z,4.55
2022-09-14T02:30:14.639Z,4.30
2022-09-14T02:32:53.913Z,4.00
2022-09-14T02:35:31.827Z,4.53
2022-09-14T02:40:41.835Z,3.25
2022-09-14T02:43:21.516Z,4.53
2022-09-14T02:45:59.138Z,2.80
2022-09-14T02:48:37.772Z,3.30
2022-09-14T02:51:16.233Z,3.85
2022-09-14T02:53:52.728Z,3.80
2022-09-14T02:56:28.420Z,3.65
2022-09-14T02:59:01.567Z,4.45
2022-09-14T03:01:34.857Z,3.22
2022-09-14T03:04:08.019Z,4.35
2022-09-14T03:06:41.149Z,4.12
2022-09-14T03:09:14.242Z,3.33
2022-09-14T03:11:47.408Z,3.60
2022-09-14T03:14:20.577Z,3.72
2022-09-14T03:16:53.690Z,4.00
2022-09-14T03:19:26.915Z,3.67
2022-09-14T03:22:00.234Z,3.90
2022-09-14T03:24:33.539Z,3.35
2022-09-14T03:27:07.194Z,2.85
2022-09-14T03:29:40.363Z,4.25
2022-09-14T03:32:13.708Z,3.90
2022-09-14T03:34:46.862Z,3.52
2022-09-14T03:37:20.081Z,3.55
2022-09-14T03:39:54.451Z,4.08
2022-09-14T03:42:27.590Z,4.12
2022-09-14T03:45:00.729Z,3.37
2022-09-14T03:47:34.544Z,2.47
2022-09-14T03:50:10.208Z,3.47
2022-09-14T03:52:43.497Z,4.28
2022-09-14T03:55:16.705Z,3.85
2022-09-14T03:57:50.592Z,3.70
2022-09-14T04:00:25.083Z,4.00
2022-09-14T04:02:59.975Z,4.75
2022-09-14T04:05:33.177Z,4.30
2022-09-14T04:08:06.740Z,3.75
2022-09-14T04:13:39.225Z,3.75
2022-09-14T04:16:19.819Z,3.30
2022-09-14T04:19:13.700Z,4.90
2022-09-14T04:21:58.159Z,5.40
2022-09-14T04:24:43.002Z,5.00
2022-09-14T04:27:20.420Z,4.15
2022-09-14T04:29:55.177Z,5.62
2022-09-14T04:32:34.373Z,5.67
2022-09-14T04:35:06.772Z,5.50
2022-09-14T04:37:39.965Z,5.42
2022-09-14T04:40:15.195Z,5.58
2022-09-14T04:42:48.412Z,5.90
2022-09-14T04:45:21.645Z,5.47
2022-09-14T04:47:55.671Z,5.40
2022-09-14T04:50:28.720Z,6.10
2022-09-14T04:53:03.426Z,5.00
2022-09-14T04:55:36.586Z,5.12
2022-09-14T04:58:10.533Z,4.60
2022-09-14T05:00:43.716Z,5.37
2022-09-14T05:03:17.395Z,6.35
2022-09-14T05:05:50.722Z,6.65
2022-09-14T05:08:23.928Z,6.17
2022-09-14T05:10:58.597Z,8.03
2022-09-14T05:13:32.919Z,7.97
2022-09-14T05:16:10.989Z,7.83
2022-09-14T05:18:46.194Z,6.37
2022-09-14T05:21:22.503Z,8.63
2022-09-14T05:24:03.154Z,7.78
2022-09-14T05:26:36.593Z,6.83
2022-09-14T05:29:11.939Z,8.45
2022-09-14T05:31:46.821Z,8.38
2022-09-14T05:34:20.518Z,7.42
2022-09-14T05:36:53.864Z,8.45
2022-09-14T05:39:27.390Z,7.75
2022-09-14T05:42:01.157Z,7.70
2022-09-14T05:44:36.165Z,6.50
2022-09-14T05:47:09.591Z,7.87
2022-09-14T05:49:43.071Z,6.75
2022-09-14T05:52:16.393Z,7.85
2022-09-14T05:54:49.589Z,8.33
2022-09-14T05:57:22.861Z,6.90
2022-09-14T05:59:56.269Z,6.85
2022-09-14T06:02:29.956Z,7.40
2022-09-14T06:05:03.136Z,7.87
2022-09-14T06:07:37.617Z,8.20
2022-09-14T06:10:12.407Z,7.37
2022-09-14T06:12:50.244Z,6.80
2022-09-14T06:15:24.758Z,8.35
2022-09-14T06:17:57.881Z,7.83
2022-09-14T06:20:30.979Z,8.05
2022-09-14T06:23:04.110Z,10.05
2022-09-14T06:25:37.224Z,7.60
2022-09-14T06:28:10.366Z,7.95
2022-09-14T06:30:45.859Z,6.20
2022-09-14T06:33:19.496Z,8.60
2022-09-14T06:36:00.418Z,6.65
2022-09-14T06:38:34.245Z,6.08
2022-09-14T06:41:10.593Z,6.80
2022-09-14T06:43:44.653Z,8.28
2022-09-14T06:46:19.859Z,7.60
2022-09-14T06:48:55.663Z,6.62
2022-09-14T06:51:31.823Z,6.97
2022-09-14T06:54:06.239Z,7.35
2022-09-14T06:56:41.150Z,8.20
2022-09-14T06:59:16.277Z,7.40
2022-09-14T07:01:49.959Z,7.00
2022-09-14T07:04:25.050Z,8.70
2022-09-14T07:06:58.229Z,7.62
2022-09-14T07:09:31.974Z,7.95
2022-09-14T07:12:05.681Z,8.03
2022-09-14T07:14:39.375Z,7.97
2022-09-14T07:17:14.270Z,8.43
2022-09-14T07:19:47.405Z,8.15
2022-09-14T07:22:20.688Z,8.60
2022-09-14T07:24:53.824Z,8.20
2022-09-14T07:27:27.071Z,8.48
2022-09-14T07:30:00.230Z,8.70
2022-09-14T07:32:34.728Z,6.62
2022-09-14T07:35:09.108Z,6.80
2022-09-14T07:37:43.120Z,8.93
2022-09-14T07:40:16.361Z,8.38
2022-09-14T07:42:57.402Z,8.33
2022-09-14T07:45:28.676Z,7.33
2022-09-14T07:48:01.886Z,6.12
2022-09-14T07:50:35.084Z,8.18
2022-09-14T07:53:08.306Z,7.17
2022-09-14T07:55:42.485Z,8.05
2022-09-14T07:58:15.758Z,8.55
2022-09-14T08:00:48.918Z,8.68
2022-09-14T08:03:21.353Z,8.08
2022-09-14T08:06:02.010Z,8.60
2022-09-14T08:08:36.128Z,9.30
2022-09-14T08:11:11.344Z,9.75
2022-09-14T08:13:45.577Z,8.20
2022-09-14T08:16:19.323Z,7.83
2022-09-14T08:18:55.775Z,7.37
2022-09-14T08:21:28.985Z,9.43
2022-09-14T08:24:02.601Z,9.93
2022-09-14T08:26:37.443Z,9.58
2022-09-14T08:29:10.041Z,9.33
2022-09-14T08:31:46.075Z,8.33
2022-09-14T08:34:19.778Z,9.83
2022-09-14T08:36:52.306Z,9.55
2022-09-14T08:39:24.906Z,9.83
2022-09-14T08:44:43.359Z,10.88
2022-09-14T08:47:19.339Z,9.80
2022-09-14T08:49:54.710Z,9.83
2022-09-14T08:52:31.318Z,10.45
2022-09-14T08:55:05.714Z,10.90
2022-09-14T08:57:41.517Z,10.72
2022-09-14T09:00:19.290Z,10.32
2022-09-14T09:05:38.017Z,9.75
2022-09-14T09:08:17.002Z,10.48
2022-09-14T09:10:51.469Z,10.50
2022-09-14T09:13:26.821Z,9.93
2022-09-14T09:18:47.141Z,8.38
2022-09-14T09:21:22.469Z,9.48
2022-09-14T09:23:59.261Z,8.90
2022-09-14T09:26:34.037Z,10.20
2022-09-14T09:29:07.433Z,9.40
2022-09-14T09:31:59.691Z,6.37
2022-09-14T09:34:35.534Z,7.12
2022-09-14T09:39:55.107Z,6.83
2022-09-14T09:42:31.343Z,7.28
2022-09-14T09:45:06.906Z,8.73
2022-09-14T09:47:42.495Z,7.25
2022-09-14T09:50:22.527Z,7.37
2022-09-14T09:52:58.250Z,9.35
2022-09-14T09:55:37.000Z,8.43
2022-09-14T09:58:25.073Z,9.55
2022-09-14T10:01:03.628Z,9.28
2022-09-14T10:03:40.645Z,9.53
2022-09-14T10:06:16.403Z,8.83
2022-09-14T10:08:50.779Z,7.55
2022-09-14T10:11:33.731Z,8.03
2022-09-14T10:14:09.240Z,9.15
2022-09-14T10:16:43.268Z,9.15
2022-09-14T10:19:18.799Z,8.45
2022-09-14T10:22:26.498Z,7.55
2022-09-14T10:25:02.696Z,9.23
2022-09-14T10:27:40.677Z,6.35
2022-09-14T10:30:19.324Z,7.85
2022-09-14T10:32:56.935Z,8.48
2022-09-14T10:35:36.994Z,7.40
2022-09-14T10:38:18.287Z,8.18
2022-09-14T10:40:56.296Z,9.75
2022-09-14T10:43:33.034Z,9.33
2022-09-14T10:46:09.352Z,9.05
2022-09-14T10:49:14.395Z,9.98
2022-09-14T10:51:57.652Z,9.88
2022-09-14T10:55:01.552Z,11.18
2022-09-14T10:57:39.980Z,11.95
2022-09-14T11:00:18.798Z,8.78
2022-09-14T11:03:15.335Z,10.43
2022-09-14T11:05:51.962Z,10.93
2022-09-14T11:08:29.256Z,8.90
2022-09-14T11:11:14.220Z,9.93
2022-09-14T11:14:00.237Z,11.97
2022-09-14T11:16:52.374Z,11.57
2022-09-14T11:19:31.074Z,10.98
2022-09-14T11:22:08.478Z,8.45
2022-09-14T11:24:45.042Z,9.15
2022-09-14T11:27:23.517Z,10.48
2022-09-14T11:30:00.207Z,11.28
2022-09-14T11:32:38.255Z,11.30
2022-09-14T11:35:19.536Z,10.48
2022-09-14T11:37:56.824Z,9.10
2022-09-14T11:40:32.800Z,8.90
2022-09-14T11:45:45.154Z,9.15
2022-09-14T11:48:42.306Z,10.00
2022-09-14T11:51:01.281Z,12.00
2022-09-14T11:53:36.372Z,12.00
2022-09-14T11:56:18.602Z,11.65
2022-09-14T11:58:52.278Z,11.43
2022-09-14T12:01:36.703Z,11.22
2022-09-14T12:04:19.890Z,10.20
2022-09-14T12:06:57.680Z,11.65
2022-09-14T12:09:46.216Z,11.95
2022-09-14T12:12:40.128Z,11.00
2022-09-14T12:15:32.362Z,11.45
2022-09-14T12:18:34.292Z,10.78
2022-09-14T12:21:10.462Z,9.28
2022-09-14T12:23:50.897Z,9.25
2022-09-14T12:26:43.419Z,10.38
2022-09-14T12:32:42.084Z,10.05
2022-09-14T12:39:07.301Z,10.32
2022-09-14T12:45:47.111Z,10.53
2022-09-14T12:49:04.415Z,10.88
2022-09-14T12:51:57.484Z,11.73
2022-09-14T12:54:51.686Z,12.18
2022-09-14T12:57:52.052Z,12.13
2022-09-14T13:00:58.549Z,13.75
2022-09-14T13:04:19.589Z,12.70
2022-09-14T13:09:34.224Z,9.50
2022-09-14T13:12:37.080Z,10.18
2022-09-14T13:15:22.914Z,9.33
2022-09-14T13:18:05.021Z,9.23
2022-09-14T13:23:24.223Z,9.08
2022-09-14T13:25:57.709Z,10.03
2022-09-14T13:28:32.817Z,10.30
2022-09-14T13:31:06.543Z,10.98
2022-09-14T13:33:39.800Z,11.20
2022-09-14T13:36:16.575Z,10.90
2022-09-14T13:38:50.448Z,9.70
2022-09-14T13:41:24.945Z,11.25
2022-09-14T13:44:00.834Z,12.28
2022-09-14T13:46:37.566Z,11.83
2022-09-14T13:49:11.171Z,9.75
2022-09-14T13:51:45.136Z,9.38
2022-09-14T13:54:30.453Z,9.10
2022-09-14T13:57:17.561Z,8.60
2022-09-14T14:03:05.716Z,9.28
2022-09-14T14:05:45.313Z,8.90
2022-09-14T14:08:32.848Z,8.20
2022-09-14T14:11:09.160Z,9.13
2022-09-14T14:13:44.524Z,9.48
2022-09-14T14:16:20.816Z,9.63
2022-09-14T14:18:55.954Z,8.03
2022-09-14T14:21:32.615Z,7.50
2022-09-14T14:24:27.906Z,7.90
2022-09-14T14:27:01.127Z,8.15
2022-09-14T14:29:34.450Z,8.90
2022-09-14T14:32:08.033Z,7.12
2022-09-14T14:34:41.222Z,6.20
2022-09-14T14:37:16.806Z,7.25
2022-09-14T14:39:52.095Z,7.42
2022-09-14T14:42:25.994Z,8.23
2022-09-14T14:44:59.210Z,9.13
2022-09-14T14:47:34.926Z,9.08
2022-09-14T14:50:14.659Z,10.80
2022-09-14T14:52:48.890Z,9.63
2022-09-14T14:55:23.972Z,8.63
2022-09-14T14:58:00.579Z,9.33
2022-09-14T15:00:36.542Z,10.93
2022-09-14T15:03:10.455Z,9.63
2022-09-14T15:05:44.974Z,10.45
2022-09-14T15:08:20.747Z,9.10
2022-09-14T15:10:59.050Z,10.38
2022-09-14T15:13:32.367Z,10.25
2022-09-14T15:16:06.159Z,10.15
2022-09-14T15:18:39.361Z,8.35
2022-09-14T15:21:13.024Z,10.05
2022-09-14T15:23:46.213Z,10.23
2022-09-14T15:26:19.417Z,9.10
2022-09-14T15:28:52.659Z,8.25
2022-09-14T15:31:26.098Z,8.03
2022-09-14T15:33:59.718Z,9.93
2022-09-14T15:36:40.716Z,7.85
2022-09-14T15:39:15.448Z,9.93
2022-09-14T15:41:49.322Z,9.50
2022-09-14T15:44:23.304Z,10.10
2022-09-14T15:46:58.240Z,10.58
2022-09-14T15:49:31.480Z,11.25
2022-09-14T15:52:05.507Z,10.28
2022-09-14T15:54:39.848Z,11.35
2022-09-14T15:57:14.917Z,11.95
2022-09-14T15:59:48.319Z,12.30
2022-09-14T16:02:22.095Z,12.33
2022-09-14T16:04:55.661Z,11.68
2022-09-14T16:07:29.905Z,11.88
2022-09-14T16:10:03.119Z,10.65
2022-09-14T16:12:36.384Z,11.03
2022-09-14T16:15:13.485Z,12.03
2022-09-14T16:17:48.086Z,12.63
2022-09-14T16:20:22.009Z,14.10
2022-09-14T16:22:57.622Z,12.73
2022-09-14T16:25:30.685Z,12.75
2022-09-14T16:28:04.659Z,12.35
2022-09-14T16:30:40.956Z,13.60
2022-09-14T16:33:16.183Z,13.62
2022-09-14T16:35:49.555Z,13.55
2022-09-14T16:38:23.771Z,12.85
2022-09-14T16:41:02.691Z,14.93
2022-09-14T16:43:39.526Z,14.83
2022-09-14T16:46:18.951Z,12.47
2022-09-14T16:48:53.506Z,12.83
2022-09-14T16:51:30.411Z,12.37
2022-09-14T16:54:08.098Z,11.38
2022-09-14T16:56:43.514Z,10.58
2022-09-14T16:59:25.599Z,9.58
2022-09-14T17:01:58.994Z,10.18
2022-09-14T17:04:32.368Z,11.33
2022-09-14T17:07:05.802Z,12.03
2022-09-14T17:09:41.445Z,11.18
2022-09-14T17:12:14.570Z,11.28
2022-09-14T17:14:48.310Z,10.65
2022-09-14T17:17:24.855Z,11.18
2022-09-14T17:19:58.032Z,10.38
2022-09-14T17:22:31.412Z,11.10
2022-09-14T17:25:04.808Z,11.25
2022-09-14T17:27:38.857Z,11.03
2022-09-14T17:30:14.877Z,11.20
2022-09-14T17:32:49.698Z,11.70
2022-09-14T17:35:22.901Z,10.45
2022-09-14T17:37:56.307Z,11.45
2022-09-14T17:40:32.636Z,10.58
2022-09-14T17:43:09.546Z,11.08
2022-09-14T17:45:48.986Z,11.30
2022-09-14T17:48:27.706Z,9.88
2022-09-14T17:51:01.126Z,10.48
2022-09-14T17:53:35.966Z,11.43
2022-09-14T17:56:11.392Z,12.30
2022-09-14T17:58:45.304Z,11.88
2022-09-14T18:01:26.370Z,9.90
2022-09-14T18:04:02.692Z,11.63
2022-09-14T18:06:38.549Z,11.65
2022-09-14T18:09:25.271Z,12.30
2022-09-14T18:11:59.367Z,12.18
2022-09-14T18:14:32.561Z,10.75
2022-09-14T18:17:06.110Z,12.10
2022-09-14T18:19:39.359Z,13.15
2022-09-14T18:22:12.729Z,11.95
2022-09-14T18:24:45.960Z,13.62
2022-09-14T18:27:19.141Z,12.13
2022-09-14T18:29:52.681Z,11.83
2022-09-14T18:32:27.253Z,13.25
2022-09-14T18:35:06.257Z,13.48
2022-09-14T18:37:39.473Z,11.78
2022-09-14T18:40:16.091Z,13.75
2022-09-14T18:42:48.530Z,12.82
2022-09-14T18:45:22.086Z,12.65
2022-09-14T18:47:55.522Z,13.88
2022-09-14T18:51:06.783Z,14.15
2022-09-14T18:56:44.753Z,13.15
2022-09-14T18:59:18.013Z,12.80
2022-09-14T19:01:51.526Z,13.90
2022-09-14T19:04:24.572Z,13.40
2022-09-14T19:06:57.546Z,14.13
2022-09-14T19:09:30.771Z,13.58
2022-09-14T19:12:04.564Z,14.85
2022-09-14T19:14:37.798Z,11.30
2022-09-14T19:17:11.280Z,14.28
2022-09-14T19:19:44.567Z,14.30
2022-09-14T19:22:17.736Z,14.70
2022-09-14T19:24:50.908Z,12.00
2022-09-14T19:27:24.084Z,14.20
2022-09-14T19:29:57.278Z,16.37
2022-09-14T19:32:30.399Z,15.72
2022-09-14T19:35:03.599Z,14.55
2022-09-14T19:37:37.212Z,15.13
2022-09-14T19:40:15.359Z,15.88
2022-09-14T19:42:48.929Z,18.12
2022-09-14T19:45:22.307Z,17.55
2022-09-14T19:47:55.508Z,16.97
2022-09-14T19:50:28.939Z,18.25
2022-09-14T19:53:04.586Z,18.30
2022-09-14T19:55:37.946Z,17.57
2022-09-14T19:58:13.099Z,17.77
2022-09-14T20:00:47.430Z,17.62
2022-09-14T20:03:21.827Z,16.75
2022-09-14T20:06:02.999Z,16.82
2022-09-14T20:08:37.517Z,15.30
2022-09-14T20:11:15.643Z,17.80
2022-09-14T20:13:48.797Z,17.67
2022-09-14T20:16:25.995Z,19.50
2022-09-14T20:19:01.401Z,17.92
2022-09-14T20:21:36.116Z,20.20
2022-09-14T20:24:16.270Z,18.60
2022-09-14T20:26:47.972Z,19.87
2022-09-14T20:29:23.206Z,19.82
2022-09-14T20:31:56.491Z,19.65
2022-09-14T20:34:30.562Z,19.82
2022-09-14T20:37:04.560Z,21.02
2022-09-14T20:39:38.530Z,21.07
2022-09-14T20:42:12.353Z,21.35
2022-09-14T20:44:45.671Z,22.32
2022-09-14T20:47:19.085Z,22.77
2022-09-14T20:49:52.650Z,22.82
2022-09-14T20:52:26.087Z,22.93
2022-09-14T20:54:59.365Z,21.55
2022-09-14T20:57:35.655Z,21.82
2022-09-14T21:00:11.938Z,23.10
2022-09-14T21:02:45.305Z,22.73
2022-09-14T21:05:18.733Z,21.48
2022-09-14T21:07:56.311Z,21.15
2022-09-14T21:10:29.603Z,21.77
2022-09-14T21:13:03.164Z,21.62
2022-09-14T21:15:38.219Z,22.65
2022-09-14T21:18:11.912Z,21.62
2022-09-14T21:20:45.414Z,22.02
2022-09-14T21:23:18.606Z,22.70
2022-09-14T21:25:58.114Z,22.13
2022-09-14T21:28:31.518Z,22.52
2022-09-14T21:31:09.724Z,23.00
2022-09-14T21:33:45.205Z,22.65
2022-09-14T21:36:20.473Z,21.12
2022-09-14T21:38:55.153Z,23.73
2022-09-14T21:41:30.818Z,23.07
2022-09-14T21:44:04.643Z,47.80
2022-09-14T21:46:38.541Z,22.32
2022-09-14T21:49:15.386Z,23.40
2022-09-14T21:51:49.076Z,24.63
2022-09-14T21:54:22.924Z,22.82
2022-09-14T21:56:56.456Z,21.73
2022-09-14T21:59:29.962Z,21.55
2022-09-14T22:02:03.227Z,22.87
2022-09-14T22:04:36.574Z,20.90
2022-09-14T22:07:10.207Z,21.33
2022-09-14T22:09:44.072Z,20.80
2022-09-14T22:12:18.190Z,19.62
2022-09-14T22:14:52.406Z,18.92
2022-09-14T22:17:27.430Z,19.62
2022-09-14T22:20:06.553Z,19.87
2022-09-14T22:22:43.856Z,17.32
2022-09-14T22:25:17.897Z,18.05
2022-09-14T22:27:51.610Z,18.40
2022-09-14T22:30:24.958Z,16.60
2022-09-14T22:32:58.613Z,16.25
2022-09-14T22:35:32.141Z,17.27
2022-09-14T22:38:07.210Z,16.20
2022-09-14T22:40:40.699Z,14.83
2022-09-14T22:43:13.934Z,13.15
2022-09-14T22:45:47.729Z,13.45
2022-09-14T22:48:21.617Z,13.28
2022-09-14T22:50:57.512Z,13.38
2022-09-14T22:53:31.808Z,13.50
2022-09-14T22:56:11.710Z,13.45
2022-09-14T22:58:45.983Z,12.60
2022-09-14T23:01:22.684Z,11.60
2022-09-14T23:03:59.298Z,12.45
2022-09-14T23:06:35.182Z,11.68
2022-09-14T23:09:10.035Z,10.70
2022-09-14T23:11:44.918Z,10.93
2022-09-14T23:14:19.068Z,10.38
2022-09-14T23:16:52.650Z,10.18
2022-09-14T23:19:26.069Z,9.55
2022-09-14T23:22:01.087Z,9.58
2022-09-14T23:24:34.639Z,10.08
2022-09-14T23:27:08.437Z,9.33
2022-09-14T23:29:41.859Z,9.80
2022-09-14T23:32:15.176Z,9.18
2022-09-14T23:34:50.037Z,11.25
2022-09-14T23:37:23.542Z,11.38
2022-09-14T23:39:57.207Z,10.98
2022-09-14T23:42:30.592Z,11.25
2022-09-14T23:45:04.343Z,11.95
2022-09-14T23:47:37.589Z,12.20
2022-09-14T23:50:12.266Z,11.22
2022-09-14T23:52:45.541Z,12.35
2022-09-14T23:55:19.027Z,10.82
2022-09-14T23:57:52.642Z,14.23
